sensor_id;sensor_type;location;lat;lon;timestamp;pressure;altitude;pressure_sealevel;temperature;humidity
7662;BME280;30314;48.184;11.510;2023-07-02T00:02:18;95386.59;;;17.11;100.00
7662;BME280;30314;48.184;11.510;2023-07-02T00:04:46;95364.28;;;17.03;100.00
7662;BME280;30314;48.184;11.510;2023-07-02T00:07:14;95372.59;;;17.02;100.00
7662;BME280;30314;48.184;11.510;2023-07-02T00:09:41;95371.25;;;17.08;100.00
7662;BME280;30314;48.184;11.510;2023-07-02T00:12:08;95361.94;;;17.02;100.00
7662;BME280;30314;48.184;11.510;2023-07-02T00:14:35;95362.72;;;17.02;100.00
7662;BME280;30314;48.184;11.510;2023-07-02T00:17:01;95381.16;;;17.08;100.00
7662;BME280;30314;48.184;11.510;2023-07-02T00:19:28;95387.44;;;17.15;100.00
7662;BME280;30314;48.184;11.510;2023-07-02T00:21:55;95372.34;;;17.19;100.00
7662;BME280;30314;48.184;11.510;2023-07-02T00:24:22;95382.81;;;17.12;100.00
7662;BME280;30314;48.184;11.510;2023-07-02T00:26:48;95354.50;;;16.95;100.00
7662;BME280;30314;48.184;11.510;2023-07-02T00:29:15;95362.81;;;17.06;100.00
7662;BME280;30314;48.184;11.510;2023-07-02T00:31:41;95386.53;;;17.24;100.00
7662;BME280;30314;48.184;11.510;2023-07-02T00:34:08;95378.53;;;17.24;100.00
7662;BME280;30314;48.184;11.510;2023-07-02T00:36:35;95370.78;;;17.18;100.00
7662;BME280;30314;48.184;11.510;2023-07-02T00:39:01;95350.19;;;17.19;100.00
7662;BME280;30314;48.184;11.510;2023-07-02T00:41:28;95373.19;;;17.24;100.00
7662;BME280;30314;48.184;11.510;2023-07-02T00:43:55;95366.09;;;17.15;100.00
7662;BME280;30314;48.184;11.510;2023-07-02T00:46:23;95381.09;;;17.20;100.00
7662;BME280;30314;48.184;11.510;2023-07-02T00:48:54;95387.22;;;17.21;100.00
7662;BME280;30314;48.184;11.510;2023-07-02T00:51:22;95398.34;;;17.23;100.00
7662;BME280;30314;48.184;11.510;2023-07-02T00:53:50;95386.78;;;17.18;100.00
7662;BME280;30314;48.184;11.510;2023-07-02T00:56:17;95391.44;;;17.22;100.00
7662;BME280;30314;48.184;11.510;2023-07-02T00:58:47;95392.75;;;17.28;100.00
7662;BME280;30314;48.184;11.510;2023-07-02T01:01:18;95402.22;;;17.25;100.00
7662;BME280;30314;48.184;11.510;2023-07-02T01:03:58;95380.81;;;17.09;100.00
7662;BME280;30314;48.184;11.510;2023-07-02T01:06:36;95400.13;;;17.18;100.00
7662;BME280;30314;48.184;11.510;2023-07-02T01:09:04;95391.00;;;17.19;100.00
7662;BME280;30314;48.184;11.510;2023-07-02T01:11:43;95391.69;;;17.16;100.00
7662;BME280;30314;48.184;11.510;2023-07-02T01:14:20;95396.69;;;17.18;100.00
7662;BME280;30314;48.184;11.510;2023-07-02T01:16:48;95398.75;;;17.25;100.00
7662;BME280;30314;48.184;11.510;2023-07-02T01:19:42;95397.66;;;17.26;100.00
7662;BME280;30314;48.184;11.510;2023-07-02T01:22:11;95391.91;;;17.11;100.00
7662;BME280;30314;48.184;11.510;2023-07-02T01:24:39;95394.59;;;17.11;100.00
7662;BME280;30314;48.184;11.510;2023-07-02T01:27:06;95401.91;;;17.14;100.00
7662;BME280;30314;48.184;11.510;2023-07-02T01:29:33;95412.69;;;17.18;100.00
7662;BME280;30314;48.184;11.510;2023-07-02T01:32:03;95394.38;;;17.16;100.00
7662;BME280;30314;48.184;11.510;2023-07-02T01:34:30;95395.91;;;17.17;100.00
7662;BME280;30314;48.184;11.510;2023-07-02T01:36:57;95397.38;;;17.15;100.00
7662;BME280;30314;48.184;11.510;2023-07-02T01:39:24;95393.19;;;17.01;100.00
7662;BME280;30314;48.184;11.510;2023-07-02T01:41:52;95402.41;;;17.04;100.00
7662;BME280;30314;48.184;11.510;2023-07-02T01:44:20;95406.06;;;17.12;100.00
7662;BME280;30314;48.184;11.510;2023-07-02T01:46:48;95410.50;;;17.08;100.00
7662;BME280;30314;48.184;11.510;2023-07-02T01:49:16;95397.66;;;16.97;100.00
7662;BME280;30314;48.184;11.510;2023-07-02T01:51:53;95399.75;;;17.04;100.00
7662;BME280;30314;48.184;11.510;2023-07-02T01:54:23;95407.06;;;17.07;100.00
7662;BME280;30314;48.184;11.510;2023-07-02T01:56:50;95403.72;;;17.10;100.00
7662;BME280;30314;48.184;11.510;2023-07-02T01:59:17;95395.59;;;17.07;100.00
7662;BME280;30314;48.184;11.510;2023-07-02T02:01:43;95403.75;;;16.98;100.00
7662;BME280;30314;48.184;11.510;2023-07-02T02:04:11;95398.44;;;16.85;100.00
7662;BME280;30314;48.184;11.510;2023-07-02T02:06:38;95393.34;;;16.80;100.00
7662;BME280;30314;48.184;11.510;2023-07-02T02:09:06;95412.69;;;16.89;100.00
7662;BME280;30314;48.184;11.510;2023-07-02T02:11:34;95400.00;;;16.86;100.00
7662;BME280;30314;48.184;11.510;2023-07-02T02:14:01;95372.38;;;16.66;100.00
7662;BME280;30314;48.184;11.510;2023-07-02T02:16:28;95399.13;;;16.82;100.00
7662;BME280;30314;48.184;11.510;2023-07-02T02:18:55;95386.13;;;16.68;100.00
7662;BME280;30314;48.184;11.510;2023-07-02T02:21:22;95390.25;;;16.78;100.00
7662;BME280;30314;48.184;11.510;2023-07-02T02:23:49;95398.13;;;16.74;100.00
7662;BME280;30314;48.184;11.510;2023-07-02T02:26:15;95407.00;;;16.79;100.00
7662;BME280;30314;48.184;11.510;2023-07-02T02:28:42;95394.59;;;16.70;100.00
7662;BME280;30314;48.184;11.510;2023-07-02T02:31:09;95411.00;;;16.85;100.00
7662;BME280;30314;48.184;11.510;2023-07-02T02:33:36;95405.09;;;16.92;100.00
7662;BME280;30314;48.184;11.510;2023-07-02T02:36:04;95404.69;;;16.89;100.00
7662;BME280;30314;48.184;11.510;2023-07-02T02:38:31;95398.88;;;16.87;100.00
7662;BME280;30314;48.184;11.510;2023-07-02T02:41:00;95389.75;;;16.88;100.00
7662;BME280;30314;48.184;11.510;2023-07-02T02:43:32;95400.44;;;16.88;100.00
7662;BME280;30314;48.184;11.510;2023-07-02T02:45:58;95391.00;;;16.79;100.00
7662;BME280;30314;48.184;11.510;2023-07-02T02:48:26;95403.00;;;16.85;100.00
7662;BME280;30314;48.184;11.510;2023-07-02T02:50:53;95408.09;;;16.90;100.00
7662;BME280;30314;48.184;11.510;2023-07-02T02:53:19;95404.31;;;16.91;100.00
7662;BME280;30314;48.184;11.510;2023-07-02T02:55:46;95405.09;;;16.92;100.00
7662;BME280;30314;48.184;11.510;2023-07-02T02:58:12;95371.19;;;16.64;100.00
7662;BME280;30314;48.184;11.510;2023-07-02T03:00:39;95410.53;;;16.95;100.00
7662;BME280;30314;48.184;11.510;2023-07-02T03:03:09;95394.22;;;16.84;100.00
7662;BME280;30314;48.184;11.510;2023-07-02T03:05:36;95415.28;;;17.02;100.00
7662;BME280;30314;48.184;11.510;2023-07-02T03:08:02;95420.53;;;16.98;100.00
7662;BME280;30314;48.184;11.510;2023-07-02T03:10:29;95410.75;;;16.90;100.00
7662;BME280;30314;48.184;11.510;2023-07-02T03:12:56;95461.44;;;16.90;100.00
7662;BME280;30314;48.184;11.510;2023-07-02T03:15:22;95465.47;;;16.71;100.00
7662;BME280;30314;48.184;11.510;2023-07-02T03:17:49;95478.56;;;16.64;100.00
7662;BME280;30314;48.184;11.510;2023-07-02T03:20:16;95473.84;;;16.24;100.00
7662;BME280;30314;48.184;11.510;2023-07-02T03:22:43;95491.19;;;16.17;100.00
7662;BME280;30314;48.184;11.510;2023-07-02T03:25:10;95488.38;;;16.01;100.00
7662;BME280;30314;48.184;11.510;2023-07-02T03:27:36;95475.06;;;15.68;100.00
7662;BME280;30314;48.184;11.510;2023-07-02T03:30:04;95476.63;;;15.69;100.00
7662;BME280;30314;48.184;11.510;2023-07-02T03:32:31;95483.22;;;15.41;100.00
7662;BME280;30314;48.184;11.510;2023-07-02T03:34:57;95490.13;;;15.42;100.00
7662;BME280;30314;48.184;11.510;2023-07-02T03:37:24;95486.09;;;15.15;100.00
7662;BME280;30314;48.184;11.510;2023-07-02T03:39:50;95493.28;;;15.14;100.00
7662;BME280;30314;48.184;11.510;2023-07-02T03:42:17;95505.16;;;15.17;100.00
7662;BME280;30314;48.184;11.510;2023-07-02T03:44:43;95505.75;;;15.01;100.00
7662;BME280;30314;48.184;11.510;2023-07-02T03:47:10;95515.59;;;15.01;100.00
7662;BME280;30314;48.184;11.510;2023-07-02T03:49:38;95520.66;;;14.93;100.00
7662;BME280;30314;48.184;11.510;2023-07-02T03:52:05;95492.88;;;14.82;100.00
7662;BME280;30314;48.184;11.510;2023-07-02T03:54:32;95522.38;;;14.89;100.00
7662;BME280;30314;48.184;11.510;2023-07-02T03:56:58;95525.22;;;14.84;100.00
7662;BME280;30314;48.184;11.510;2023-07-02T03:59:25;95508.53;;;14.75;100.00
7662;BME280;30314;48.184;11.510;2023-07-02T04:01:51;95508.69;;;14.78;100.00
7662;BME280;30314;48.184;11.510;2023-07-02T04:04:18;95511.28;;;14.87;100.00
7662;BME280;30314;48.184;11.510;2023-07-02T04:06:45;95512.75;;;14.76;100.00
7662;BME280;30314;48.184;11.510;2023-07-02T04:09:12;95491.88;;;14.65;100.00
7662;BME280;30314;48.184;11.510;2023-07-02T04:11:39;95509.13;;;14.80;100.00
7662;BME280;30314;48.184;11.510;2023-07-02T04:14:05;95500.56;;;14.75;100.00
7662;BME280;30314;48.184;11.510;2023-07-02T04:16:32;95493.44;;;14.67;100.00
7662;BME280;30314;48.184;11.510;2023-07-02T04:18:59;95504.78;;;14.76;100.00
7662;BME280;30314;48.184;11.510;2023-07-02T04:21:25;95506.81;;;14.79;100.00
7662;BME280;30314;48.184;11.510;2023-07-02T04:23:52;95506.16;;;14.82;100.00
7662;BME280;30314;48.184;11.510;2023-07-02T04:26:19;95514.28;;;14.86;100.00
7662;BME280;30314;48.184;11.510;2023-07-02T04:29:05;95515.25;;;14.81;100.00
7662;BME280;30314;48.184;11.510;2023-07-02T04:31:32;95523.03;;;14.86;100.00
7662;BME280;30314;48.184;11.510;2023-07-02T04:33:59;95505.25;;;14.78;100.00
7662;BME280;30314;48.184;11.510;2023-07-02T04:36:26;95517.91;;;14.81;100.00
7662;BME280;30314;48.184;11.510;2023-07-02T04:38:55;95515.59;;;14.71;100.00
7662;BME280;30314;48.184;11.510;2023-07-02T04:41:21;95510.78;;;14.64;100.00
7662;BME280;30314;48.184;11.510;2023-07-02T04:43:48;95512.63;;;14.72;100.00
7662;BME280;30314;48.184;11.510;2023-07-02T04:46:14;95517.91;;;14.81;100.00
7662;BME280;30314;48.184;11.510;2023-07-02T04:48:41;95512.41;;;14.86;100.00
7662;BME280;30314;48.184;11.510;2023-07-02T04:51:08;95517.84;;;14.90;100.00
7662;BME280;30314;48.184;11.510;2023-07-02T04:53:34;95505.84;;;14.84;100.00
7662;BME280;30314;48.184;11.510;2023-07-02T04:56:01;95510.19;;;14.88;100.00
7662;BME280;30314;48.184;11.510;2023-07-02T04:58:28;95524.22;;;14.98;100.00
7662;BME280;30314;48.184;11.510;2023-07-02T05:00:54;95530.84;;;14.91;100.00
7662;BME280;30314;48.184;11.510;2023-07-02T05:03:21;95531.94;;;14.90;100.00
7662;BME280;30314;48.184;11.510;2023-07-02T05:05:47;95523.22;;;14.81;100.00
7662;BME280;30314;48.184;11.510;2023-07-02T05:08:14;95544.91;;;14.92;100.00
7662;BME280;30314;48.184;11.510;2023-07-02T05:10:41;95545.25;;;14.82;100.00
7662;BME280;30314;48.184;11.510;2023-07-02T05:13:07;95538.56;;;14.75;100.00
7662;BME280;30314;48.184;11.510;2023-07-02T05:15:34;95543.25;;;14.78;100.00
7662;BME280;30314;48.184;11.510;2023-07-02T05:18:00;95539.47;;;14.79;100.00
7662;BME280;30314;48.184;11.510;2023-07-02T05:20:27;95520.78;;;14.67;100.00
7662;BME280;30314;48.184;11.510;2023-07-02T05:22:54;95526.84;;;14.76;100.00
7662;BME280;30314;48.184;11.510;2023-07-02T05:25:20;95552.28;;;14.86;100.00
7662;BME280;30314;48.184;11.510;2023-07-02T05:27:47;95552.09;;;14.91;100.00
7662;BME280;30314;48.184;11.510;2023-07-02T05:30:14;95551.66;;;14.80;100.00
7662;BME280;30314;48.184;11.510;2023-07-02T05:32:42;95548.69;;;14.82;100.00
7662;BME280;30314;48.184;11.510;2023-07-02T05:35:08;95548.97;;;14.89;100.00
7662;BME280;30314;48.184;11.510;2023-07-02T05:37:35;95545.41;;;14.85;100.00
7662;BME280;30314;48.184;11.510;2023-07-02T05:40:02;95533.66;;;14.86;100.00
7662;BME280;30314;48.184;11.510;2023-07-02T05:42:29;95524.72;;;14.91;100.00
7662;BME280;30314;48.184;11.510;2023-07-02T05:44:56;95540.47;;;15.05;100.00
7662;BME280;30314;48.184;11.510;2023-07-02T05:47:22;95559.16;;;15.17;100.00
7662;BME280;30314;48.184;11.510;2023-07-02T05:49:49;95547.41;;;15.18;100.00
7662;BME280;30314;48.184;11.510;2023-07-02T05:52:15;95552.53;;;15.24;100.00
7662;BME280;30314;48.184;11.510;2023-07-02T05:54:42;95560.31;;;15.29;100.00
7662;BME280;30314;48.184;11.510;2023-07-02T05:57:08;95555.59;;;15.43;100.00
7662;BME280;30314;48.184;11.510;2023-07-02T05:59:35;95533.25;;;15.27;100.00
7662;BME280;30314;48.184;11.510;2023-07-02T06:02:02;95554.22;;;15.28;100.00
7662;BME280;30314;48.184;11.510;2023-07-02T06:04:28;95552.94;;;15.34;100.00
7662;BME280;30314;48.184;11.510;2023-07-02T06:06:55;95558.38;;;15.38;100.00
7662;BME280;30314;48.184;11.510;2023-07-02T06:09:21;95562.00;;;15.33;100.00
7662;BME280;30314;48.184;11.510;2023-07-02T06:11:48;95557.47;;;15.34;100.00
7662;BME280;30314;48.184;11.510;2023-07-02T06:14:15;95566.56;;;15.33;100.00
7662;BME280;30314;48.184;11.510;2023-07-02T06:16:41;95563.63;;;15.26;100.00
7662;BME280;30314;48.184;11.510;2023-07-02T06:19:08;95570.44;;;15.35;100.00
7662;BME280;30314;48.184;11.510;2023-07-02T06:21:36;95584.09;;;15.34;100.00
7662;BME280;30314;48.184;11.510;2023-07-02T06:24:03;95579.13;;;15.24;100.00
7662;BME280;30314;48.184;11.510;2023-07-02T06:26:30;95601.47;;;15.31;100.00
7662;BME280;30314;48.184;11.510;2023-07-02T06:28:57;95596.16;;;15.31;100.00
7662;BME280;30314;48.184;11.510;2023-07-02T06:31:24;95599.72;;;15.35;100.00
7662;BME280;30314;48.184;11.510;2023-07-02T06:33:51;95602.25;;;15.32;100.00
7662;BME280;30314;48.184;11.510;2023-07-02T06:36:19;95595.84;;;15.33;100.00
7662;BME280;30314;48.184;11.510;2023-07-02T06:38:45;95600.06;;;15.34;100.00
7662;BME280;30314;48.184;11.510;2023-07-02T06:41:12;95594.44;;;15.27;100.00
7662;BME280;30314;48.184;11.510;2023-07-02T06:43:41;95597.84;;;15.36;100.00
7662;BME280;30314;48.184;11.510;2023-07-02T06:46:12;95589.84;;;15.45;100.00
7662;BME280;30314;48.184;11.510;2023-07-02T06:48:39;95580.03;;;15.28;100.00
7662;BME280;30314;48.184;11.510;2023-07-02T06:51:05;95586.31;;;15.32;100.00
7662;BME280;30314;48.184;11.510;2023-07-02T06:53:34;95604.41;;;15.39;100.00
7662;BME280;30314;48.184;11.510;2023-07-02T06:56:00;95588.38;;;15.26;100.00
7662;BME280;30314;48.184;11.510;2023-07-02T06:58:27;95608.19;;;15.29;100.00
7662;BME280;30314;48.184;11.510;2023-07-02T07:00:53;95585.63;;;15.14;100.00
7662;BME280;30314;48.184;11.510;2023-07-02T07:03:20;95606.66;;;15.28;100.00
7662;BME280;30314;48.184;11.510;2023-07-02T07:05:47;95607.94;;;15.21;100.00
7662;BME280;30314;48.184;11.510;2023-07-02T07:08:13;95619.03;;;15.24;100.00
7662;BME280;30314;48.184;11.510;2023-07-02T07:10:40;95618.19;;;15.11;100.00
7662;BME280;30314;48.184;11.510;2023-07-02T07:13:06;95618.28;;;15.14;100.00
7662;BME280;30314;48.184;11.510;2023-07-02T07:15:37;95626.00;;;15.07;100.00
7662;BME280;30314;48.184;11.510;2023-07-02T07:18:03;95618.53;;;15.00;100.00
7662;BME280;30314;48.184;11.510;2023-07-02T07:20:31;95619.66;;;14.90;100.00
7662;BME280;30314;48.184;11.510;2023-07-02T07:22:57;95616.25;;;14.81;100.00
7662;BME280;30314;48.184;11.510;2023-07-02T07:25:24;95625.75;;;14.91;100.00
7662;BME280;30314;48.184;11.510;2023-07-02T07:27:51;95619.94;;;14.98;100.00
7662;BME280;30314;48.184;11.510;2023-07-02T07:30:19;95618.09;;;14.89;100.00
7662;BME280;30314;48.184;11.510;2023-07-02T07:32:50;95640.94;;;14.90;100.00
7662;BME280;30314;48.184;11.510;2023-07-02T07:35:20;95630.88;;;14.96;100.00
7662;BME280;30314;48.184;11.510;2023-07-02T07:37:48;95630.94;;;14.87;100.00
7662;BME280;30314;48.184;11.510;2023-07-02T07:40:15;95608.94;;;14.78;100.00
7662;BME280;30314;48.184;11.510;2023-07-02T07:42:42;95641.56;;;14.87;100.00
7662;BME280;30314;48.184;11.510;2023-07-02T07:45:10;95637.53;;;14.81;100.00
7662;BME280;30314;48.184;11.510;2023-07-02T07:47:38;95631.16;;;14.64;100.00
7662;BME280;30314;48.184;11.510;2023-07-02T07:50:05;95640.69;;;14.74;100.00
7662;BME280;30314;48.184;11.510;2023-07-02T07:52:40;95643.94;;;14.80;100.00
7662;BME280;30314;48.184;11.510;2023-07-02T07:55:07;95641.91;;;14.86;100.00
7662;BME280;30314;48.184;11.510;2023-07-02T07:57:35;95634.97;;;14.93;100.00
7662;BME280;30314;48.184;11.510;2023-07-02T08:00:04;95643.97;;;15.10;100.00
7662;BME280;30314;48.184;11.510;2023-07-02T08:02:41;95636.75;;;15.19;100.00
7662;BME280;30314;48.184;11.510;2023-07-02T08:05:09;95632.34;;;15.24;100.00
7662;BME280;30314;48.184;11.510;2023-07-02T08:07:36;95634.94;;;15.32;100.00
7662;BME280;30314;48.184;11.510;2023-07-02T08:10:02;95634.63;;;15.34;100.00
7662;BME280;30314;48.184;11.510;2023-07-02T08:12:29;95650.38;;;15.48;100.00
7662;BME280;30314;48.184;11.510;2023-07-02T08:14:56;95650.53;;;15.52;100.00
7662;BME280;30314;48.184;11.510;2023-07-02T08:17:23;95643.44;;;15.56;100.00
7662;BME280;30314;48.184;11.510;2023-07-02T08:19:49;95644.91;;;15.53;100.00
7662;BME280;30314;48.184;11.510;2023-07-02T08:22:16;95644.97;;;15.66;100.00
7662;BME280;30314;48.184;11.510;2023-07-02T08:24:43;95652.63;;;15.67;100.00
7662;BME280;30314;48.184;11.510;2023-07-02T08:27:09;95654.06;;;15.64;100.00
7662;BME280;30314;48.184;11.510;2023-07-02T08:29:41;95644.69;;;15.58;100.00
7662;BME280;30314;48.184;11.510;2023-07-02T08:32:08;95662.38;;;15.63;100.00
7662;BME280;30314;48.184;11.510;2023-07-02T08:34:34;95666.72;;;15.68;100.00
7662;BME280;30314;48.184;11.510;2023-07-02T08:37:01;95649.84;;;15.63;100.00
7662;BME280;30314;48.184;11.510;2023-07-02T08:39:27;95660.50;;;15.63;100.00
7662;BME280;30314;48.184;11.510;2023-07-02T08:41:54;95667.22;;;15.61;100.00
7662;BME280;30314;48.184;11.510;2023-07-02T08:44:21;95675.75;;;15.75;100.00
7662;BME280;30314;48.184;11.510;2023-07-02T08:46:49;95655.94;;;15.64;100.00
7662;BME280;30314;48.184;11.510;2023-07-02T08:49:17;95670.88;;;15.77;100.00
7662;BME280;30314;48.184;11.510;2023-07-02T08:51:45;95678.03;;;15.64;100.00
7662;BME280;30314;48.184;11.510;2023-07-02T08:54:13;95676.13;;;15.65;100.00
7662;BME280;30314;48.184;11.510;2023-07-02T08:56:41;95667.22;;;15.61;100.00
7662;BME280;30314;48.184;11.510;2023-07-02T08:59:08;95657.09;;;15.54;100.00
7662;BME280;30314;48.184;11.510;2023-07-02T09:01:52;95678.53;;;15.58;100.00
7662;BME280;30314;48.184;11.510;2023-07-02T09:04:23;95678.66;;;15.61;100.00
7662;BME280;30314;48.184;11.510;2023-07-02T09:09:31;95676.19;;;15.56;100.00
7662;BME280;30314;48.184;11.510;2023-07-02T09:11:57;95663.31;;;15.58;100.00
7662;BME280;30314;48.184;11.510;2023-07-02T09:14:29;95685.44;;;15.80;100.00
7662;BME280;30314;48.184;11.510;2023-07-02T09:17:08;95676.59;;;15.88;100.00
7662;BME280;30314;48.184;11.510;2023-07-02T09:19:36;95664.66;;;15.73;100.00
7662;BME280;30314;48.184;11.510;2023-07-02T09:22:03;95676.00;;;15.83;100.00
7662;BME280;30314;48.184;11.510;2023-07-02T09:24:31;95680.50;;;15.91;100.00
7662;BME280;30314;48.184;11.510;2023-07-02T09:26:59;95666.28;;;15.87;100.00
7662;BME280;30314;48.184;11.510;2023-07-02T09:29:30;95684.06;;;15.95;100.00
7662;BME280;30314;48.184;11.510;2023-07-02T09:32:03;95679.22;;;15.97;100.00
7662;BME280;30314;48.184;11.510;2023-07-02T09:34:36;95689.00;;;16.05;100.00
7662;BME280;30314;48.184;11.510;2023-07-02T09:37:04;95678.22;;;16.02;100.00
7662;BME280;30314;48.184;11.510;2023-07-02T09:39:35;95694.34;;;16.05;100.00
7662;BME280;30314;48.184;11.510;2023-07-02T09:42:05;95679.41;;;15.92;100.00
7662;BME280;30314;48.184;11.510;2023-07-02T09:44:34;95691.03;;;16.09;100.00
7662;BME280;30314;48.184;11.510;2023-07-02T09:47:06;95679.09;;;15.94;100.00
7662;BME280;30314;48.184;11.510;2023-07-02T09:49:41;95677.00;;;15.99;100.00
7662;BME280;30314;48.184;11.510;2023-07-02T09:52:10;95688.03;;;16.10;100.00
7662;BME280;30314;48.184;11.510;2023-07-02T09:54:38;95695.59;;;16.08;100.00
7662;BME280;30314;48.184;11.510;2023-07-02T09:57:05;95693.38;;;16.10;100.00
7662;BME280;30314;48.184;11.510;2023-07-02T09:59:33;95695.81;;;16.15;100.00
7662;BME280;30314;48.184;11.510;2023-07-02T10:02:00;95680.44;;;16.21;100.00
7662;BME280;30314;48.184;11.510;2023-07-02T10:04:27;95667.19;;;16.12;100.00
7662;BME280;30314;48.184;11.510;2023-07-02T10:06:56;95695.06;;;16.15;100.00
7662;BME280;30314;48.184;11.510;2023-07-02T10:09:40;95696.47;;;16.33;100.00
7662;BME280;30314;48.184;11.510;2023-07-02T10:14:44;95676.09;;;16.16;100.00
7662;BME280;30314;48.184;11.510;2023-07-02T10:17:23;95673.22;;;16.22;100.00
7662;BME280;30314;48.184;11.510;2023-07-02T10:19:53;95683.88;;;16.43;100.00
7662;BME280;30314;48.184;11.510;2023-07-02T10:22:20;95679.25;;;16.52;100.00
7662;BME280;30314;48.184;11.510;2023-07-02T10:24:57;95677.28;;;16.61;100.00
7662;BME280;30314;48.184;11.510;2023-07-02T10:27:40;95683.66;;;16.82;100.00
7662;BME280;30314;48.184;11.510;2023-07-02T10:30:09;95667.38;;;16.96;100.00
7662;BME280;30314;48.184;11.510;2023-07-02T10:32:37;95670.38;;;17.19;100.00
7662;BME280;30314;48.184;11.510;2023-07-02T10:35:17;95672.94;;;17.28;100.00
7662;BME280;30314;48.184;11.510;2023-07-02T10:37:44;95670.06;;;17.33;100.00
7662;BME280;30314;48.184;11.510;2023-07-02T10:40:11;95672.28;;;17.31;100.00
7662;BME280;30314;48.184;11.510;2023-07-02T10:42:52;95670.94;;;17.37;100.00
7662;BME280;30314;48.184;11.510;2023-07-02T10:45:20;95672.84;;;17.37;100.00
7662;BME280;30314;48.184;11.510;2023-07-02T10:47:47;95678.97;;;17.37;100.00
7662;BME280;30314;48.184;11.510;2023-07-02T10:50:17;95667.59;;;17.28;100.00
7662;BME280;30314;48.184;11.510;2023-07-02T10:52:45;95645.50;;;17.15;100.00
7662;BME280;30314;48.184;11.510;2023-07-02T10:55:23;95655.38;;;17.27;100.00
7662;BME280;30314;48.184;11.510;2023-07-02T10:58:01;95638.78;;;17.46;100.00
7662;BME280;30314;48.184;11.510;2023-07-02T11:00:29;95657.34;;;17.80;100.00
7662;BME280;30314;48.184;11.510;2023-07-02T11:02:55;95630.03;;;17.70;100.00
7662;BME280;30314;48.184;11.510;2023-07-02T11:05:22;95663.00;;;18.03;100.00
7662;BME280;30314;48.184;11.510;2023-07-02T11:07:49;95657.03;;;18.22;100.00
7662;BME280;30314;48.184;11.510;2023-07-02T11:10:23;95658.44;;;18.32;100.00
7662;BME280;30314;48.184;11.510;2023-07-02T11:12:50;95656.47;;;18.45;100.00
7662;BME280;30314;48.184;11.510;2023-07-02T11:15:17;95639.16;;;18.39;100.00
7662;BME280;30314;48.184;11.510;2023-07-02T11:17:44;95633.38;;;18.37;100.00
7662;BME280;30314;48.184;11.510;2023-07-02T11:20:13;95659.59;;;18.47;100.00
7662;BME280;30314;48.184;11.510;2023-07-02T11:22:40;95632.91;;;18.35;100.00
7662;BME280;30314;48.184;11.510;2023-07-02T11:25:18;95654.03;;;18.68;100.00
7662;BME280;30314;48.184;11.510;2023-07-02T11:27:46;95652.00;;;18.78;100.00
7662;BME280;30314;48.184;11.510;2023-07-02T11:30:13;95643.72;;;18.83;100.00
7662;BME280;30314;48.184;11.510;2023-07-02T11:32:51;95647.78;;;18.93;100.00
7662;BME280;30314;48.184;11.510;2023-07-02T11:35:19;95652.88;;;18.98;100.00
7662;BME280;30314;48.184;11.510;2023-07-02T11:37:46;95645.28;;;19.16;100.00
7662;BME280;30314;48.184;11.510;2023-07-02T11:40:17;95643.03;;;19.34;100.00
7662;BME280;30314;48.184;11.510;2023-07-02T11:42:43;95640.97;;;19.63;100.00
7662;BME280;30314;48.184;11.510;2023-07-02T11:45:10;95641.41;;;19.65;100.00
7662;BME280;30314;48.184;11.510;2023-07-02T11:47:38;95620.66;;;19.78;100.00
7662;BME280;30314;48.184;11.510;2023-07-02T11:50:05;95616.16;;;19.82;100.00
7662;BME280;30314;48.184;11.510;2023-07-02T11:52:50;95642.09;;;19.98;100.00
7662;BME280;30314;48.184;11.510;2023-07-02T11:55:17;95635.41;;;19.88;100.00
7662;BME280;30314;48.184;11.510;2023-07-02T11:57:43;95631.66;;;19.57;100.00
7662;BME280;30314;48.184;11.510;2023-07-02T12:00:10;95636.00;;;19.46;100.00
7662;BME280;30314;48.184;11.510;2023-07-02T12:02:37;95615.97;;;19.39;100.00
7662;BME280;30314;48.184;11.510;2023-07-02T12:05:04;95622.25;;;19.47;100.00
7662;BME280;30314;48.184;11.510;2023-07-02T12:07:35;95600.34;;;19.41;100.00
7662;BME280;30314;48.184;11.510;2023-07-02T12:10:02;95611.59;;;19.67;100.00
7662;BME280;30314;48.184;11.510;2023-07-02T12:12:28;95625.75;;;19.67;100.00
7662;BME280;30314;48.184;11.510;2023-07-02T12:14:55;95617.22;;;19.62;100.00
7662;BME280;30314;48.184;11.510;2023-07-02T12:17:21;95589.88;;;19.52;100.00
7662;BME280;30314;48.184;11.510;2023-07-02T12:19:48;95603.41;;;19.60;100.00
7662;BME280;30314;48.184;11.510;2023-07-02T12:22:16;95613.44;;;19.63;100.00
7662;BME280;30314;48.184;11.510;2023-07-02T12:24:44;95593.25;;;19.69;100.00
7662;BME280;30314;48.184;11.510;2023-07-02T12:27:11;95590.59;;;19.69;100.00
7662;BME280;30314;48.184;11.510;2023-07-02T12:29:38;95603.97;;;19.85;100.00
7662;BME280;30314;48.184;11.510;2023-07-02T12:32:05;95597.06;;;19.84;100.00
7662;BME280;30314;48.184;11.510;2023-07-02T12:34:31;95592.69;;;19.95;100.00
7662;BME280;30314;48.184;11.510;2023-07-02T12:36:58;95597.13;;;20.07;100.00
7662;BME280;30314;48.184;11.510;2023-07-02T12:39:25;95593.16;;;20.21;100.00
7662;BME280;30314;48.184;11.510;2023-07-02T12:41:52;95587.44;;;20.22;100.00
7662;BME280;30314;48.184;11.510;2023-07-02T12:44:18;95572.03;;;20.19;100.00
7662;BME280;30314;48.184;11.510;2023-07-02T12:46:45;95588.28;;;20.07;100.00
7662;BME280;30314;48.184;11.510;2023-07-02T12:49:12;95574.13;;;20.06;100.00
7662;BME280;30314;48.184;11.510;2023-07-02T12:51:39;95587.69;;;20.37;100.00
7662;BME280;30314;48.184;11.510;2023-07-02T12:54:05;95587.34;;;20.38;100.00
7662;BME280;30314;48.184;11.510;2023-07-02T12:56:32;95576.69;;;20.42;99.44
7662;BME280;30314;48.184;11.510;2023-07-02T12:58:59;95567.38;;;20.36;100.00
7662;BME280;30314;48.184;11.510;2023-07-02T13:01:25;95571.06;;;20.51;97.94